Time;durP1;ratioP1;P1;durP2;ratioP2;P2;SDS_P1;SDS_P2;PMS_P1;PMS_P2;Temp;Humidity;BMP_temperature;BMP_pressure;BME280_temperature;BME280_humidity;BME280_pressure;Samples;Min_cycle;Max_cycle;Signal;HPM_P1;HPM_P2
2022/02/26 00:01:04;;;;;;;21.70;9.53;;;;;;;5.08;57.44;101658.47;1705556;83;26466;-59
2022/02/26 00:03:31;;;;;;;23.95;9.50;;;;;;;5.09;57.65;101652.66;1751016;81;25762;-58
2022/02/26 00:05:58;;;;;;;31.20;9.08;;;;;;;5.10;57.87;101663.27;1750803;81;27393;-57
2022/02/26 00:08:25;;;;;;;15.65;8.70;;;;;;;5.09;57.57;101656.66;1751063;80;25667;-57
2022/02/26 00:10:52;;;;;;;17.37;8.13;;;;;;;5.12;58.34;101664.52;1750802;81;25502;-57
2022/02/26 00:13:19;;;;;;;15.32;8.05;;;;;;;5.11;57.72;101660.97;1751690;80;26524;-57
2022/02/26 00:15:46;;;;;;;21.15;10.08;;;;;;;5.08;57.93;101662.48;1751032;80;25868;-56
2022/02/26 00:18:13;;;;;;;20.62;9.20;;;;;;;5.10;57.52;101667.27;1750354;81;27470;-57
2022/02/26 00:20:40;;;;;;;19.90;9.08;;;;;;;5.08;58.38;101663.81;1705532;83;25789;-57
2022/02/26 00:23:07;;;;;;;16.05;8.68;;;;;;;5.08;58.51;101670.48;1705741;83;25614;-57
2022/02/26 00:25:34;;;;;;;15.38;8.20;;;;;;;5.07;59.39;101665.20;1750612;81;25873;-56
2022/02/26 00:28:01;;;;;;;16.87;8.23;;;;;;;5.05;59.38;101671.11;1706441;83;25630;-57
2022/02/26 00:30:28;;;;;;;17.42;8.25;;;;;;;5.06;58.83;101672.84;1755415;81;27487;-57
2022/02/26 00:32:55;;;;;;;16.95;9.20;;;;;;;5.08;59.21;101674.93;1757608;81;25717;-57
2022/02/26 00:35:22;;;;;;;14.85;6.45;;;;;;;5.13;59.18;101676.91;1757442;80;25626;-57
2022/02/26 00:37:48;;;;;;;15.50;7.45;;;;;;;5.16;58.81;101685.61;1757330;80;25802;-57
2022/02/26 00:40:16;;;;;;;17.52;7.67;;;;;;;5.20;59.00;101690.31;1751319;81;25884;-58
2022/02/26 00:42:43;;;;;;;19.00;7.30;;;;;;;5.20;59.10;101684.13;1750619;81;28186;-56
2022/02/26 00:45:10;;;;;;;17.15;8.20;;;;;;;5.23;58.93;101687.50;1753027;80;25960;-56
2022/02/26 00:47:38;;;;;;;16.00;7.62;;;;;;;5.26;59.06;101694.48;1759912;81;25711;-56
2022/02/26 00:50:06;;;;;;;16.90;7.83;;;;;;;5.27;59.03;101694.87;1756093;81;26743;-57
2022/02/26 00:52:35;;;;;;;15.43;8.08;;;;;;;5.25;59.14;101694.94;1741495;81;25739;-56
2022/02/26 00:55:05;;;;;;;19.15;7.80;;;;;;;5.24;58.88;101699.02;1741565;82;28277;-56
2022/02/26 00:57:33;;;;;;;20.02;7.30;;;;;;;5.24;58.62;101700.36;1741204;82;26107;-56
2022/02/26 01:00:00;;;;;;;15.32;7.35;;;;;;;5.23;59.04;101708.84;1741715;82;25835;-56
2022/02/26 01:02:27;;;;;;;15.88;8.23;;;;;;;5.21;58.92;101707.17;1741390;82;26178;-56
2022/02/26 01:04:54;;;;;;;15.23;8.90;;;;;;;5.19;58.99;101705.92;1741439;82;25735;-56
2022/02/26 01:07:21;;;;;;;15.58;8.13;;;;;;;5.18;59.21;101706.87;1741542;82;28259;-56
2022/02/26 01:09:48;;;;;;;19.90;8.53;;;;;;;5.17;58.95;101708.69;1741519;82;25830;-57
2022/02/26 01:12:15;;;;;;;17.62;7.78;;;;;;;5.17;59.29;101711.35;1744217;81;25954;-56
2022/02/26 01:14:43;;;;;;;16.97;8.83;;;;;;;5.20;58.47;101715.66;1759655;81;26149;-57
2022/02/26 01:17:14;;;;;;;18.50;8.80;;;;;;;5.21;58.66;101710.72;1759147;81;25502;-56
2022/02/26 01:19:41;;;;;;;18.85;9.20;;;;;;;5.24;58.63;101712.36;1759628;80;27444;-56
2022/02/26 01:22:08;;;;;;;17.98;8.58;;;;;;;5.22;59.19;101701.78;1759054;81;25934;-56
2022/02/26 01:24:36;;;;;;;19.73;8.83;;;;;;;5.22;59.09;101703.11;1759791;81;25496;-56
2022/02/26 01:27:04;;;;;;;16.23;8.13;;;;;;;5.22;58.62;101702.23;1759468;81;26732;-56
2022/02/26 01:29:31;;;;;;;17.37;8.68;;;;;;;5.20;59.33;101711.66;1758245;81;25782;-57
2022/02/26 01:31:59;;;;;;;16.87;9.43;;;;;;;5.21;58.95;101710.72;1754498;81;27461;-56
2022/02/26 01:34:26;;;;;;;18.25;8.80;;;;;;;5.21;60.05;101712.05;1754539;81;25634;-56
2022/02/26 01:36:52;;;;;;;15.53;8.90;;;;;;;5.15;59.78;101709.23;1754538;81;25708;-56
2022/02/26 01:39:24;;;;;;;16.30;9.45;;;;;;;5.10;60.27;101706.39;1748660;81;26104;-56
2022/02/26 01:41:49;;;;;;;20.97;9.08;;;;;;;5.03;60.74;101711.66;1742535;81;25723;-56
2022/02/26 01:44:16;;;;;;;15.80;8.60;;;;;;;5.03;60.74;101711.66;1741544;82;27495;-57
2022/02/26 01:46:44;;;;;;;19.75;9.53;;;;;;;4.99;61.05;101718.46;1741725;82;25848;-56
2022/02/26 01:49:11;;;;;;;27.05;9.30;;;;;;;4.96;61.11;101721.30;1741224;82;25708;-56
2022/02/26 01:51:38;;;;;;;18.32;8.70;;;;;;;4.91;61.56;101723.31;1750642;81;26076;-56
2022/02/26 01:54:06;;;;;;;21.93;8.65;;;;;;;4.91;61.84;101730.47;1710399;83;25806;-56
2022/02/26 01:56:34;;;;;;;18.00;7.80;;;;;;;4.85;61.97;101723.62;1753253;81;27872;-56
2022/02/26 01:59:01;;;;;;;17.95;8.28;;;;;;;4.86;61.59;101724.02;1710953;83;25986;-56
2022/02/26 02:01:28;;;;;;;16.20;8.05;;;;;;;4.87;62.11;101728.42;1753399;81;25641;-56
2022/02/26 02:03:55;;;;;;;20.15;9.63;;;;;;;4.88;62.29;101722.16;1753221;81;26103;-57
2022/02/26 02:06:22;;;;;;;15.05;7.62;;;;;;;4.86;62.70;101727.54;1753316;81;25779;-57
2022/02/26 02:08:49;;;;;;;19.02;8.38;;;;;;;4.88;63.07;101724.82;1753160;81;28138;-57
2022/02/26 02:11:16;;;;;;;16.55;7.28;;;;;;;4.88;62.58;101729.27;1753095;80;25719;-56
2022/02/26 02:13:43;;;;;;;16.25;8.20;;;;;;;4.92;62.15;101722.38;1710902;83;25817;-57
2022/02/26 02:16:10;;;;;;;17.45;8.75;;;;;;;4.96;62.29;101721.75;1753168;81;26104;-57
2022/02/26 02:18:37;;;;;;;14.78;8.28;;;;;;;4.93;62.70;101732.11;1752816;81;25846;-57
2022/02/26 02:21:05;;;;;;;13.60;7.58;;;;;;;4.92;62.39;101725.53;1753041;81;27492;-57
2022/02/26 02:23:32;;;;;;;18.32;8.20;;;;;;;4.93;62.23;101738.78;1753001;81;25687;-57
2022/02/26 02:26:01;;;;;;;20.15;8.53;;;;;;;4.93;62.39;101730.78;1711403;83;25801;-58
2022/02/26 02:28:28;;;;;;;12.65;7.78;;;;;;;4.95;62.19;101736.02;1753355;81;26056;-56
2022/02/26 02:30:55;;;;;;;17.67;8.98;;;;;;;4.95;62.36;101738.69;1758739;81;25776;-57
2022/02/26 02:33:22;;;;;;;14.95;8.30;;;;;;;4.92;63.18;101736.20;1759612;81;28342;-56
2022/02/26 02:35:49;;;;;;;16.45;7.67;;;;;;;4.91;62.40;101743.80;1759495;80;25741;-57
2022/02/26 02:38:18;;;;;;;16.70;7.45;;;;;;;4.88;62.96;101747.48;1759635;80;25646;-57
2022/02/26 02:40:48;;;;;;;14.83;7.40;;;;;;;4.83;63.08;101742.37;1749606;81;26121;-57
2022/02/26 02:43:16;;;;;;;12.05;7.65;;;;;;;4.81;62.90;101748.25;1749813;82;25700;-57
2022/02/26 02:45:44;;;;;;;16.95;7.97;;;;;;;4.81;63.46;101746.91;1749424;81;27467;-57
2022/02/26 02:48:11;;;;;;;17.85;7.42;;;;;;;4.81;63.05;101748.25;1748548;82;25805;-57
2022/02/26 02:50:39;;;;;;;13.55;7.58;;;;;;;4.82;63.00;101746.42;1747813;81;25505;-57
2022/02/26 02:53:05;;;;;;;18.98;7.25;;;;;;;4.83;62.87;101750.83;1741556;82;26064;-57
2022/02/26 02:55:32;;;;;;;12.47;7.10;;;;;;;4.84;63.04;101758.73;1741828;81;25749;-57
2022/02/26 02:58:00;;;;;;;11.73;6.90;;;;;;;4.81;63.41;101762.03;1741779;82;28147;-57
2022/02/26 03:00:29;;;;;;;14.95;7.50;;;;;;;4.79;62.98;101760.78;1741808;82;25730;-57
2022/02/26 03:02:56;;;;;;;14.80;7.40;;;;;;;4.80;62.62;101758.96;1741531;82;26559;-58
2022/02/26 03:05:23;;;;;;;16.62;7.75;;;;;;;4.82;62.57;101758.42;1741393;81;28328;-57
2022/02/26 03:07:52;;;;;;;13.22;7.35;;;;;;;4.84;62.38;101769.89;1741605;82;25503;-57
2022/02/26 03:10:20;;;;;;;14.13;7.75;;;;;;;4.85;62.13;101764.95;1741732;82;27043;-57
2022/02/26 03:12:52;;;;;;;15.72;7.90;;;;;;;4.88;61.97;101770.60;1741313;81;25900;-57
2022/02/26 03:15:21;;;;;;;16.70;8.03;;;;;;;4.89;61.89;101768.33;1741730;82;25713;-57
2022/02/26 03:17:50;;;;;;;14.47;7.65;;;;;;;4.91;61.85;101781.98;1741450;82;26082;-58
2022/02/26 03:20:18;;;;;;;11.95;7.85;;;;;;;4.89;61.96;101786.52;1741912;82;25712;-57
2022/02/26 03:22:46;;;;;;;13.85;8.48;;;;;;;4.89;61.75;101790.52;1741608;82;27413;-57
2022/02/26 03:25:13;;;;;;;17.62;8.70;;;;;;;4.85;61.99;101794.28;1741606;82;25629;-57
2022/02/26 03:27:40;;;;;;;11.53;7.62;;;;;;;4.82;62.48;101788.63;1741566;82;25795;-57
2022/02/26 03:30:10;;;;;;;13.10;7.17;;;;;;;4.79;62.19;101790.11;1739367;81;26734;-58
2022/02/26 03:32:38;;;;;;;13.98;7.65;;;;;;;4.81;62.14;101794.02;1735500;81;25788;-58
2022/02/26 03:35:07;;;;;;;10.35;7.20;;;;;;;4.80;62.42;101798.50;1735622;81;27442;-57
2022/02/26 03:37:35;;;;;;;11.53;7.00;;;;;;;4.78;62.59;101803.52;1735475;82;25641;-57
2022/02/26 03:40:05;;;;;;;15.65;7.78;;;;;;;4.79;62.36;101808.77;1740414;81;25711;-57
2022/02/26 03:42:32;;;;;;;14.85;7.55;;;;;;;4.83;62.03;101813.48;1741672;82;26093;-57
2022/02/26 03:44:59;;;;;;;14.78;8.30;;;;;;;4.86;62.11;101820.02;1742699;81;25721;-57
2022/02/26 03:47:26;;;;;;;12.13;6.62;;;;;;;4.85;61.93;101828.94;1741472;82;27491;-57
2022/02/26 03:49:53;;;;;;;12.85;8.20;;;;;;;4.85;61.96;101824.46;1741870;82;25641;-58
2022/02/26 03:52:20;;;;;;;12.47;6.67;;;;;;;4.85;61.82;101828.94;1756012;80;25743;-57
2022/02/26 03:54:47;;;;;;;9.18;6.72;;;;;;;4.86;61.74;101830.67;1759761;81;26738;-57
2022/02/26 03:57:14;;;;;;;9.30;7.08;;;;;;;4.86;61.59;101835.52;1759893;81;25738;-57
2022/02/26 03:59:42;;;;;;;15.13;7.75;;;;;;;4.85;61.69;101829.79;1759543;81;27498;-58
2022/02/26 04:02:09;;;;;;;15.08;7.72;;;;;;;4.85;61.53;101831.61;1759759;81;25796;-58
2022/02/26 04:04:36;;;;;;;9.63;6.83;;;;;;;4.85;61.41;101836.45;1759916;81;25588;-58
2022/02/26 04:07:06;;;;;;;11.97;7.40;;;;;;;4.85;61.38;101835.61;1760080;81;26191;-57
2022/02/26 04:09:34;;;;;;;15.35;7.37;;;;;;;4.85;61.37;101836.94;1759746;81;25722;-57
2022/02/26 04:12:02;;;;;;;12.68;8.05;;;;;;;4.85;61.42;101835.61;1760120;81;27410;-57
2022/02/26 04:14:28;;;;;;;10.65;7.72;;;;;;;4.82;61.21;101835.74;1759693;81;25720;-58
2022/02/26 04:16:55;;;;;;;10.85;6.80;;;;;;;4.82;61.26;101844.63;1759176;81;25740;-57
2022/02/26 04:19:22;;;;;;;10.23;7.50;;;;;;;4.79;61.46;101848.75;1759566;81;26186;-57
2022/02/26 04:21:50;;;;;;;12.43;7.75;;;;;;;4.80;61.18;101850.48;1760253;81;25801;-57
2022/02/26 04:24:18;;;;;;;12.88;8.23;;;;;;;4.81;61.12;101855.34;1759829;81;27490;-56
2022/02/26 04:26:45;;;;;;;13.88;7.70;;;;;;;4.78;61.38;101859.50;1759746;81;25735;-57
2022/02/26 04:29:12;;;;;;;11.12;7.92;;;;;;;4.78;61.73;101866.17;1756802;81;25629;-56
2022/02/26 04:31:39;;;;;;;11.15;7.28;;;;;;;4.79;61.45;101870.56;1741073;82;26076;-57
2022/02/26 04:34:06;;;;;;;16.15;9.50;;;;;;;4.79;62.13;101868.75;1741229;82;25712;-57
2022/02/26 04:36:33;;;;;;;11.55;7.28;;;;;;;4.79;61.67;101874.08;1739103;81;28107;-57
2022/02/26 04:39:00;;;;;;;10.75;6.85;;;;;;;4.80;61.67;101876.27;1744246;81;25685;-56
2022/02/26 04:41:27;;;;;;;10.68;6.72;;;;;;;4.82;62.27;101873.95;1705320;84;25746;-57
2022/02/26 04:43:55;;;;;;;16.07;7.45;;;;;;;4.82;62.01;101884.61;1750475;81;26100;-57
2022/02/26 04:46:24;;;;;;;14.20;6.87;;;;;;;4.83;61.83;101877.47;1750404;81;25794;-57
2022/02/26 04:48:51;;;;;;;11.00;7.22;;;;;;;4.84;61.78;101889.86;1751175;81;28149;-58
2022/02/26 04:51:18;;;;;;;14.25;8.03;;;;;;;4.80;61.64;101886.93;1709973;82;25740;-57
2022/02/26 04:53:46;;;;;;;12.78;7.55;;;;;;;4.79;61.48;101891.41;1769798;81;25481;-58
2022/02/26 04:56:12;;;;;;;14.35;7.25;;;;;;;4.78;61.34;101893.68;1770290;80;26735;-57
2022/02/26 04:59:13;;;;;;;12.30;7.50;;;;;;;4.76;61.41;101904.87;1770535;80;25766;-57
2022/02/26 05:01:40;;;;;;;13.68;7.85;;;;;;;4.75;61.57;101902.29;1741755;79;28175;-58
2022/02/26 05:04:07;;;;;;;12.50;7.95;;;;;;;4.72;61.50;101913.08;1736639;82;25480;-59
2022/02/26 05:06:34;;;;;;;20.70;9.13;;;;;;;4.70;61.43;101913.16;1735992;82;25804;-58
2022/02/26 05:09:00;;;;;;;13.15;8.13;;;;;;;4.68;61.58;101915.91;1722089;82;26733;-58
2022/02/26 05:11:27;;;;;;;10.32;6.95;;;;;;;4.69;61.73;101919.42;1736222;82;25815;-58
2022/02/26 05:13:54;;;;;;;12.50;7.22;;;;;;;4.68;61.63;101928.35;1737771;81;27455;-58
2022/02/26 05:16:21;;;;;;;13.58;8.08;;;;;;;4.67;61.56;101931.95;1722265;83;25663;-58
2022/02/26 05:18:48;;;;;;;13.83;7.75;;;;;;;4.64;61.50;101934.30;1736255;81;25784;-57
2022/02/26 05:21:15;;;;;;;13.00;7.50;;;;;;;4.63;61.53;101935.22;1736127;82;26021;-58
2022/02/26 05:23:42;;;;;;;10.23;7.08;;;;;;;4.65;61.64;101945.84;1735982;81;25717;-57
2022/02/26 05:26:12;;;;;;;12.40;7.85;;;;;;;4.67;61.76;101945.27;1736613;81;27482;-58
2022/02/26 05:28:39;;;;;;;10.23;7.28;;;;;;;4.67;62.02;101948.83;1736761;81;25848;-58
2022/02/26 05:31:07;;;;;;;13.50;7.25;;;;;;;4.72;62.07;101949.06;1772683;80;25714;-59
2022/02/26 05:33:36;;;;;;;14.87;7.37;;;;;;;4.74;61.97;101956.09;1775680;80;26506;-59
2022/02/26 05:36:05;;;;;;;12.15;7.08;;;;;;;4.78;61.73;101964.33;1775576;80;25791;-58
2022/02/26 05:38:32;;;;;;;11.05;6.92;;;;;;;4.82;61.79;101965.94;1776241;80;27422;-59
2022/02/26 05:40:59;;;;;;;14.28;7.58;;;;;;;4.83;61.46;101965.45;1775664;80;25836;-58
2022/02/26 05:43:26;;;;;;;12.90;7.53;;;;;;;4.83;61.26;101966.78;1775921;80;25679;-58
2022/02/26 05:45:53;;;;;;;15.23;8.33;;;;;;;4.85;61.16;101967.59;1770556;80;25991;-57
2022/02/26 05:48:20;;;;;;;11.08;7.62;;;;;;;4.84;61.05;101976.52;1766975;80;25934;-58
2022/02/26 05:50:47;;;;;;;14.78;8.60;;;;;;;4.86;61.16;101975.51;1766508;81;28347;-58
2022/02/26 05:53:14;;;;;;;12.93;7.10;;;;;;;4.87;60.98;101983.05;1756548;81;25794;-58
2022/02/26 05:55:41;;;;;;;12.03;7.92;;;;;;;4.87;60.94;101989.72;1756199;81;25759;-58
2022/02/26 05:58:08;;;;;;;11.38;7.45;;;;;;;4.88;60.80;101983.91;1755573;81;26110;-57
2022/02/26 06:00:34;;;;;;;13.25;8.00;;;;;;;4.90;60.95;101988.23;1756443;80;25945;-57
2022/02/26 06:03:01;;;;;;;18.87;8.75;;;;;;;4.91;60.78;101989.12;1755567;81;27375;-57
2022/02/26 06:05:28;;;;;;;19.00;8.28;;;;;;;4.93;60.76;101989.92;1756560;81;25945;-57
2022/02/26 06:07:55;;;;;;;18.85;8.90;;;;;;;4.97;60.67;101988.38;1755618;81;25822;-58
2022/02/26 06:10:22;;;;;;;20.77;9.75;;;;;;;4.99;60.59;101989.15;1755609;81;26083;-57
2022/02/26 06:12:49;;;;;;;14.25;7.42;;;;;;;5.04;60.78;101986.75;1756343;81;25711;-57
2022/02/26 06:15:16;;;;;;;19.12;8.53;;;;;;;5.03;60.48;101999.20;1755555;80;28176;-57
2022/02/26 06:17:43;;;;;;;13.98;8.65;;;;;;;5.05;60.39;101993.34;1755706;80;25518;-57
2022/02/26 06:20:13;;;;;;;16.77;8.35;;;;;;;5.07;60.40;101989.26;1755627;80;25774;-56
2022/02/26 06:22:40;;;;;;;17.57;8.60;;;;;;;5.10;60.36;101998.02;1756325;80;26937;-57
2022/02/26 06:25:08;;;;;;;13.62;8.88;;;;;;;5.15;60.28;102001.33;1755649;80;25744;-57
2022/02/26 06:27:38;;;;;;;18.05;10.20;;;;;;;5.13;60.11;101995.67;1755967;80;27434;-56
2022/02/26 06:30:08;;;;;;;15.05;8.83;;;;;;;5.15;60.15;102005.32;1762002;80;25747;-56
2022/02/26 06:32:37;;;;;;;13.15;8.40;;;;;;;5.16;60.10;102001.72;1761812;80;25778;-56
2022/02/26 06:35:06;;;;;;;13.88;8.38;;;;;;;5.13;60.32;102007.19;1762529;80;26010;-56
2022/02/26 06:37:33;;;;;;;13.95;7.90;;;;;;;5.13;60.27;102013.86;1762052;81;25505;-57
2022/02/26 06:40:01;;;;;;;13.85;8.00;;;;;;;5.14;60.40;102016.08;1755061;80;28108;-57
2022/02/26 06:42:28;;;;;;;13.18;7.15;;;;;;;5.20;60.35;102020.27;1751296;80;25790;-57
2022/02/26 06:44:55;;;;;;;16.10;7.17;;;;;;;5.24;60.08;102024.51;1751940;81;25825;-57
2022/02/26 06:47:22;;;;;;;12.50;7.33;;;;;;;5.29;60.00;102030.52;1761815;80;26093;-58
2022/02/26 06:49:49;;;;;;;12.80;7.12;;;;;;;5.35;59.88;102036.01;1762378;81;25778;-57
2022/02/26 06:52:17;;;;;;;14.85;7.12;;;;;;;5.37;59.57;102030.14;1762293;80;27450;-57
2022/02/26 06:54:44;;;;;;;14.85;8.10;;;;;;;5.38;59.44;102041.22;1764363;81;25691;-57
2022/02/26 06:57:11;;;;;;;13.48;9.03;;;;;;;5.42;59.35;102047.67;1764676;81;25801;-57
2022/02/26 06:59:38;;;;;;;13.90;8.10;;;;;;;5.47;59.20;102051.47;1764653;81;26097;-57
2022/02/26 07:02:04;;;;;;;19.10;7.05;;;;;;;5.51;58.92;102055.73;1764622;80;26423;-57
2022/02/26 07:04:31;;;;;;;11.33;7.42;;;;;;;5.52;58.75;102053.92;1764504;81;27565;-57
2022/02/26 07:06:58;;;;;;;13.48;7.10;;;;;;;5.53;58.77;102063.66;1764359;81;25703;-57
2022/02/26 07:09:27;;;;;;;14.20;8.30;;;;;;;5.57;58.56;102054.11;1764988;81;25827;-57
2022/02/26 07:11:54;;;;;;;15.23;7.08;;;;;;;5.58;58.54;102058.51;1764578;81;26469;-58
2022/02/26 07:14:20;;;;;;;13.70;7.70;;;;;;;5.62;58.39;102060.08;1764745;81;25723;-57
2022/02/26 07:16:47;;;;;;;23.38;11.08;;;;;;;5.61;58.27;102059.68;1764588;81;28583;-58
2022/02/26 07:19:15;;;;;;;13.45;7.33;;;;;;;5.63;58.27;102061.81;1726321;83;25690;-57
2022/02/26 07:21:43;;;;;;;13.35;7.37;;;;;;;5.62;58.17;102065.42;1765308;80;25734;-58
2022/02/26 07:24:10;;;;;;;11.70;7.08;;;;;;;5.66;58.09;102067.47;1764550;81;26171;-57
2022/02/26 07:26:38;;;;;;;12.65;7.28;;;;;;;5.67;57.91;102061.69;1765014;81;25796;-57
2022/02/26 07:29:05;;;;;;;14.80;7.33;;;;;;;5.70;57.77;102069.08;1761633;81;27472;-58
2022/02/26 07:31:32;;;;;;;15.28;7.62;;;;;;;5.76;57.75;102072.78;1737684;82;25877;-57
2022/02/26 07:34:00;;;;;;;11.38;6.92;;;;;;;5.85;57.67;102075.50;1737788;82;25801;-57
2022/02/26 07:36:27;;;;;;;10.18;6.45;;;;;;;5.93;57.39;102078.66;1737770;82;26097;-58
2022/02/26 07:38:53;;;;;;;10.38;6.65;;;;;;;6.01;57.30;102077.45;1741800;81;25938;-57
2022/02/26 07:41:20;;;;;;;12.98;6.80;;;;;;;6.08;56.88;102075.76;1753323;81;27450;-57
2022/02/26 07:43:47;;;;;;;12.45;7.22;;;;;;;6.12;56.71;102077.80;1752893;81;25485;-57
2022/02/26 07:46:14;;;;;;;10.20;6.08;;;;;;;6.17;56.56;102081.59;1751865;81;25743;-58
2022/02/26 07:48:41;;;;;;;16.07;7.22;;;;;;;6.21;56.38;102078.69;1751997;81;26112;-57
2022/02/26 07:51:08;;;;;;;17.82;8.00;;;;;;;6.24;56.14;102085.20;1751889;81;25747;-57
2022/02/26 07:53:35;;;;;;;14.87;7.83;;;;;;;6.28;56.09;102084.58;1757467;80;27513;-58
2022/02/26 07:56:02;;;;;;;10.85;6.83;;;;;;;6.34;56.04;102086.08;1759888;81;25758;-58
2022/02/26 07:58:29;;;;;;;11.70;7.20;;;;;;;6.37;55.82;102093.47;1759999;81;25756;-58
2022/02/26 08:00:57;;;;;;;13.50;7.20;;;;;;;6.40;55.56;102096.00;1759305;81;26087;-58
2022/02/26 08:03:24;;;;;;;10.55;6.72;;;;;;;6.48;55.55;102096.97;1759803;81;25726;-58
2022/02/26 08:05:50;;;;;;;11.63;7.00;;;;;;;6.47;55.50;102095.23;1759515;81;27499;-58
2022/02/26 08:08:17;;;;;;;16.77;9.50;;;;;;;6.55;55.26;102093.49;1759537;81;25585;-57
2022/02/26 08:10:44;;;;;;;12.53;7.00;;;;;;;6.60;55.30;102095.94;1759225;81;25461;-58
2022/02/26 08:13:11;;;;;;;15.83;8.13;;;;;;;6.65;54.93;102098.77;1759897;81;26103;-57
2022/02/26 08:15:38;;;;;;;18.23;6.75;;;;;;;6.70;54.79;102094.53;1759611;81;25517;-57
2022/02/26 08:18:05;;;;;;;14.80;7.03;;;;;;;6.74;54.80;102092.95;1759651;81;29673;-57
2022/02/26 08:20:32;;;;;;;17.05;8.43;;;;;;;6.80;54.50;102102.48;1759919;81;25755;-57
2022/02/26 08:22:58;;;;;;;13.22;7.03;;;;;;;6.84;54.51;102106.73;1760106;81;25359;-57
2022/02/26 08:25:25;;;;;;;12.98;6.95;;;;;;;6.90;54.37;102101.55;1759902;81;26173;-57
2022/02/26 08:27:53;;;;;;;12.80;7.33;;;;;;;6.98;54.32;102110.49;1759882;81;25501;-58
2022/02/26 08:30:21;;;;;;;13.62;7.05;;;;;;;7.02;54.03;102111.59;1748446;81;28711;-58
2022/02/26 08:32:50;;;;;;;12.80;6.87;;;;;;;7.10;53.99;102111.66;1742115;81;25756;-58
2022/02/26 08:35:17;;;;;;;15.03;6.90;;;;;;;7.17;53.81;102113.09;1753894;81;25502;-57
2022/02/26 08:37:46;;;;;;;14.93;7.62;;;;;;;7.25;53.51;102109.98;1739879;81;26885;-57
2022/02/26 08:40:15;;;;;;;13.38;6.90;;;;;;;7.32;53.40;102114.94;1726933;82;25787;-57
2022/02/26 08:42:43;;;;;;;13.53;7.65;;;;;;;7.43;53.24;102113.51;1705536;83;26929;-57
2022/02/26 08:45:11;;;;;;;11.95;6.85;;;;;;;7.55;53.00;102115.50;1752810;81;25786;-57
2022/02/26 08:47:39;;;;;;;16.97;8.18;;;;;;;7.63;52.73;102117.77;1759796;81;25747;-58
2022/02/26 08:50:09;;;;;;;17.10;9.05;;;;;;;7.72;52.70;102121.29;1760357;81;26676;-57
2022/02/26 08:52:36;;;;;;;13.10;8.55;;;;;;;7.79;52.44;102124.02;1760164;81;25548;-58
2022/02/26 08:55:04;;;;;;;14.45;8.15;;;;;;;7.80;52.12;102121.73;1760094;81;27547;-58
2022/02/26 08:57:31;;;;;;;18.92;8.38;;;;;;;7.91;52.12;102130.50;1759997;81;25751;-57
2022/02/26 09:00:00;;;;;;;15.05;8.48;;;;;;;7.97;51.58;102133.31;1759770;81;25717;-58
2022/02/26 09:02:27;;;;;;;21.52;11.68;;;;;;;7.99;51.56;102136.30;1760030;81;26162;-57
2022/02/26 09:04:54;;;;;;;12.03;6.95;;;;;;;7.98;51.56;102139.06;1759480;81;25920;-58
2022/02/26 09:07:21;;;;;;;15.85;9.55;;;;;;;8.06;51.43;102137.31;1760075;81;27484;-58
2022/02/26 09:09:50;;;;;;;14.78;7.95;;;;;;;8.09;51.51;102133.09;1759744;81;25735;-57
2022/02/26 09:12:17;;;;;;;12.37;7.70;;;;;;;8.11;51.19;102136.56;1760033;81;25625;-57
2022/02/26 09:14:44;;;;;;;13.85;7.15;;;;;;;8.12;51.03;102136.47;1758502;81;26082;-57
2022/02/26 09:17:11;;;;;;;17.85;9.68;;;;;;;8.15;51.17;102140.33;1760094;81;25642;-57
2022/02/26 09:19:39;;;;;;;17.45;8.15;;;;;;;8.13;50.93;102142.70;1758399;81;28736;-57
2022/02/26 09:22:07;;;;;;;13.08;7.58;;;;;;;8.09;50.80;102135.32;1759862;81;25806;-57
2022/02/26 09:24:34;;;;;;;22.35;7.53;;;;;;;8.13;50.82;102141.37;1759692;81;25720;-57
2022/02/26 09:27:01;;;;;;;13.60;7.25;;;;;;;8.17;50.47;102142.91;1759554;81;26833;-57
2022/02/26 09:29:28;;;;;;;11.95;6.80;;;;;;;8.14;50.66;102145.78;1751952;81;25510;-58
2022/02/26 09:31:56;;;;;;;11.55;7.53;;;;;;;8.18;50.64;102148.66;1729752;82;27727;-57
2022/02/26 09:34:24;;;;;;;14.55;8.73;;;;;;;8.20;50.75;102148.59;1727186;82;25851;-58
2022/02/26 09:36:53;;;;;;;36.80;18.20;;;;;;;8.28;50.28;102150.36;1725363;83;25741;-57
2022/02/26 09:39:21;;;;;;;19.60;8.20;;;;;;;8.28;50.42;102151.22;1741099;81;26159;-58
2022/02/26 09:41:50;;;;;;;13.40;7.37;;;;;;;8.35;50.36;102149.05;1761886;80;25824;-58
2022/02/26 09:44:19;;;;;;;13.45;7.42;;;;;;;8.41;50.13;102147.84;1761505;81;27538;-58
2022/02/26 09:46:46;;;;;;;20.82;8.58;;;;;;;8.48;50.30;102149.25;1762071;80;25819;-58
2022/02/26 09:49:13;;;;;;;13.13;7.37;;;;;;;8.58;49.93;102146.88;1762045;81;25746;-57
2022/02/26 09:51:44;;;;;;;17.02;7.28;;;;;;;8.62;49.89;102143.08;1762107;80;26117;-57
2022/02/26 09:54:11;;;;;;;14.38;7.60;;;;;;;8.71;49.25;102149.70;1763797;80;25896;-57
2022/02/26 09:56:39;;;;;;;16.60;7.55;;;;;;;8.75;49.36;102149.92;1768411;80;27569;-57
2022/02/26 09:59:06;;;;;;;15.40;7.08;;;;;;;8.86;48.72;102156.88;1761201;81;26107;-58
2022/02/26 10:01:33;;;;;;;20.45;6.47;;;;;;;8.86;48.58;102147.48;1764392;81;26037;-58
2022/02/26 10:04:09;;;;;;;10.28;6.50;;;;;;;8.90;48.53;102144.98;1764397;81;26119;-57
2022/02/26 10:06:38;;;;;;;12.98;6.60;;;;;;;9.00;48.46;102145.78;1764252;80;25776;-58
2022/02/26 10:09:13;;;;;;;10.38;6.15;;;;;;;9.13;48.19;102148.13;1764377;81;27061;-58
2022/02/26 10:11:40;;;;;;;10.48;6.22;;;;;;;9.23;48.38;102148.41;1760955;81;25745;-58
2022/02/26 10:14:15;;;;;;;10.08;5.90;;;;;;;9.37;48.02;102151.11;1764881;81;25453;-58
2022/02/26 10:16:51;;;;;;;12.28;5.97;;;;;;;9.60;47.86;102146.14;1763901;80;26188;-58
2022/02/26 10:19:32;;;;;;;11.75;6.37;;;;;;;9.79;46.62;102154.39;1763746;80;25735;-58
2022/02/26 10:22:08;;;;;;;9.30;5.55;;;;;;;9.90;46.63;102149.21;1763926;80;27486;-57
2022/02/26 10:24:40;;;;;;;24.47;7.00;;;;;;;10.02;46.81;102144.38;1764187;81;25953;-58
2022/02/26 10:27:11;;;;;;;13.35;6.12;;;;;;;10.24;46.39;102146.14;1768450;80;25698;-57
2022/02/26 10:29:41;;;;;;;11.65;5.97;;;;;;;10.53;46.12;102142.94;1762721;81;26765;-57
2022/02/26 10:32:10;;;;;;;13.80;5.58;;;;;;;10.72;44.86;102147.94;1758855;81;25483;-58
2022/02/26 10:34:42;;;;;;;15.25;6.08;;;;;;;11.00;44.45;102141.14;1758385;81;27486;-58
2022/02/26 10:37:13;;;;;;;11.35;6.30;;;;;;;11.28;44.23;102142.80;1758216;81;25834;-57
2022/02/26 10:39:50;;;;;;;8.80;5.45;;;;;;;11.68;43.56;102148.56;1732265;82;25808;-58
2022/02/26 10:42:33;;;;;;;13.70;6.33;;;;;;;11.98;42.39;102139.23;1753396;81;26061;-57
2022/02/26 10:45:13;;;;;;;6.85;4.50;;;;;;;12.24;42.33;102129.74;1714101;82;25507;-58
2022/02/26 10:47:43;;;;;;;11.38;5.35;;;;;;;12.43;41.16;102139.52;1725580;82;27485;-57
2022/02/26 10:50:25;;;;;;;10.98;4.87;;;;;;;12.26;41.05;102137.21;1725655;83;25617;-58
2022/02/26 10:53:05;;;;;;;8.45;4.05;;;;;;;12.05;41.01;102137.84;1725668;82;26186;-58
2022/02/26 10:55:52;;;;;;;10.25;4.90;;;;;;;11.83;40.83;102140.70;1720873;83;26144;-59
2022/02/26 10:58:23;;;;;;;12.58;4.35;;;;;;;12.04;40.59;102132.91;1720772;83;25781;-58
2022/02/26 11:00:52;;;;;;;9.53;4.03;;;;;;;12.19;40.00;102129.58;1720151;83;27485;-58
2022/02/26 11:03:21;;;;;;;12.00;4.12;;;;;;;11.93;39.68;102134.64;1703151;84;25771;-58
2022/02/26 11:05:48;;;;;;;9.38;4.15;;;;;;;11.68;40.21;102145.86;1703365;84;25805;-58
2022/02/26 11:08:17;;;;;;;10.43;3.80;;;;;;;11.52;40.48;102152.31;1703085;84;26658;-58
2022/02/26 11:10:45;;;;;;;8.05;4.03;;;;;;;11.42;40.18;102152.12;1703214;84;25796;-58
2022/02/26 11:13:13;;;;;;;8.93;4.45;;;;;;;11.33;40.64;102154.61;1703138;84;28170;-58
2022/02/26 11:15:42;;;;;;;7.55;3.98;;;;;;;11.35;40.50;102148.14;1703298;84;25856;-58
2022/02/26 11:18:12;;;;;;;20.97;4.35;;;;;;;11.24;40.57;102143.97;1703000;84;25511;-58
2022/02/26 11:20:40;;;;;;;7.60;4.10;;;;;;;11.20;40.64;102140.64;1703004;84;26083;-58
2022/02/26 11:23:08;;;;;;;22.30;10.48;;;;;;;11.07;40.12;102153.24;1703326;84;25832;-58
2022/02/26 11:25:37;;;;;;;8.50;4.92;;;;;;;10.79;40.89;102147.05;1703060;84;28186;-58
2022/02/26 11:28:07;;;;;;;10.35;5.72;;;;;;;10.54;41.14;102156.73;1702997;84;25778;-58